sensor_id;sensor_type;location;lat;lon;timestamp;P1;durP1;ratioP1;P2;durP2;ratioP2
3000;SDS011;1510;51.072;6.678;2022-10-16T00:00:37;808.53;;;738.97;;
3000;SDS011;1510;51.072;6.678;2022-10-16T00:03:09;805.10;;;736.37;;
3000;SDS011;1510;51.072;6.678;2022-10-16T00:05:37;819.03;;;750.60;;
3000;SDS011;1510;51.072;6.678;2022-10-16T00:08:05;821.57;;;755.07;;
3000;SDS011;1510;51.072;6.678;2022-10-16T00:10:32;825.07;;;760.07;;
3000;SDS011;1510;51.072;6.678;2022-10-16T00:12:59;832.10;;;769.17;;
3000;SDS011;1510;51.072;6.678;2022-10-16T00:15:27;830.33;;;769.30;;
3000;SDS011;1510;51.072;6.678;2022-10-16T00:17:54;835.57;;;776.70;;
3000;SDS011;1510;51.072;6.678;2022-10-16T00:20:21;833.97;;;776.10;;
3000;SDS011;1510;51.072;6.678;2022-10-16T00:22:47;830.80;;;773.50;;
3000;SDS011;1510;51.072;6.678;2022-10-16T00:25:14;836.87;;;780.37;;
3000;SDS011;1510;51.072;6.678;2022-10-16T00:27:41;841.17;;;784.97;;
3000;SDS011;1510;51.072;6.678;2022-10-16T00:30:08;826.57;;;771.57;;
3000;SDS011;1510;51.072;6.678;2022-10-16T00:32:36;828.70;;;774.77;;
3000;SDS011;1510;51.072;6.678;2022-10-16T00:35:03;823.50;;;770.57;;
3000;SDS011;1510;51.072;6.678;2022-10-16T00:37:30;822.37;;;770.00;;
3000;SDS011;1510;51.072;6.678;2022-10-16T00:39:57;822.83;;;769.97;;
3000;SDS011;1510;51.072;6.678;2022-10-16T00:42:24;814.67;;;762.57;;
3000;SDS011;1510;51.072;6.678;2022-10-16T00:44:51;829.17;;;776.17;;
3000;SDS011;1510;51.072;6.678;2022-10-16T00:47:21;831.53;;;778.27;;
3000;SDS011;1510;51.072;6.678;2022-10-16T00:49:53;830.43;;;776.87;;
3000;SDS011;1510;51.072;6.678;2022-10-16T00:52:23;828.30;;;774.20;;
3000;SDS011;1510;51.072;6.678;2022-10-16T00:54:50;834.93;;;780.13;;
3000;SDS011;1510;51.072;6.678;2022-10-16T00:57:19;845.70;;;789.10;;
3000;SDS011;1510;51.072;6.678;2022-10-16T00:59:46;843.50;;;786.10;;
3000;SDS011;1510;51.072;6.678;2022-10-16T01:02:14;835.97;;;778.57;;
3000;SDS011;1510;51.072;6.678;2022-10-16T01:04:43;834.30;;;777.10;;
3000;SDS011;1510;51.072;6.678;2022-10-16T01:07:16;836.53;;;779.50;;
3000;SDS011;1510;51.072;6.678;2022-10-16T01:09:57;824.17;;;767.90;;
3000;SDS011;1510;51.072;6.678;2022-10-16T01:12:34;826.67;;;770.57;;
3000;SDS011;1510;51.072;6.678;2022-10-16T01:15:08;832.20;;;776.17;;
3000;SDS011;1510;51.072;6.678;2022-10-16T01:17:40;828.50;;;772.47;;
3000;SDS011;1510;51.072;6.678;2022-10-16T01:20:12;825.63;;;770.57;;
3000;SDS011;1510;51.072;6.678;2022-10-16T01:22:50;817.17;;;762.70;;
3000;SDS011;1510;51.072;6.678;2022-10-16T01:25:30;829.73;;;772.07;;
3000;SDS011;1510;51.072;6.678;2022-10-16T01:28:07;838.30;;;778.37;;
3000;SDS011;1510;51.072;6.678;2022-10-16T01:30:37;830.03;;;768.60;;
3000;SDS011;1510;51.072;6.678;2022-10-16T01:33:08;830.70;;;767.50;;
3000;SDS011;1510;51.072;6.678;2022-10-16T01:35:39;835.30;;;771.80;;
3000;SDS011;1510;51.072;6.678;2022-10-16T01:38:12;834.83;;;771.30;;
3000;SDS011;1510;51.072;6.678;2022-10-16T01:40:44;833.83;;;769.40;;
3000;SDS011;1510;51.072;6.678;2022-10-16T01:43:19;833.57;;;767.13;;
3000;SDS011;1510;51.072;6.678;2022-10-16T01:45:48;842.47;;;775.73;;
3000;SDS011;1510;51.072;6.678;2022-10-16T01:48:17;840.40;;;774.23;;
3000;SDS011;1510;51.072;6.678;2022-10-16T01:50:49;826.87;;;761.87;;
3000;SDS011;1510;51.072;6.678;2022-10-16T01:53:20;838.07;;;771.97;;
3000;SDS011;1510;51.072;6.678;2022-10-16T01:55:48;838.87;;;772.50;;
3000;SDS011;1510;51.072;6.678;2022-10-16T01:58:17;829.43;;;762.60;;
3000;SDS011;1510;51.072;6.678;2022-10-16T02:00:45;837.47;;;770.20;;
3000;SDS011;1510;51.072;6.678;2022-10-16T02:03:14;829.83;;;764.77;;
3000;SDS011;1510;51.072;6.678;2022-10-16T02:05:44;863.13;;;800.37;;
3000;SDS011;1510;51.072;6.678;2022-10-16T02:08:12;837.13;;;775.57;;
3000;SDS011;1510;51.072;6.678;2022-10-16T02:10:39;831.20;;;770.80;;
3000;SDS011;1510;51.072;6.678;2022-10-16T02:13:07;831.00;;;770.60;;
3000;SDS011;1510;51.072;6.678;2022-10-16T02:15:38;841.80;;;781.87;;
3000;SDS011;1510;51.072;6.678;2022-10-16T02:18:05;844.70;;;785.20;;
3000;SDS011;1510;51.072;6.678;2022-10-16T02:20:34;833.50;;;775.67;;
3000;SDS011;1510;51.072;6.678;2022-10-16T02:23:07;833.73;;;777.10;;
3000;SDS011;1510;51.072;6.678;2022-10-16T02:25:40;836.77;;;780.87;;
3000;SDS011;1510;51.072;6.678;2022-10-16T02:28:13;832.77;;;777.50;;
3000;SDS011;1510;51.072;6.678;2022-10-16T02:30:45;830.50;;;775.40;;
3000;SDS011;1510;51.072;6.678;2022-10-16T02:33:16;823.40;;;769.77;;
3000;SDS011;1510;51.072;6.678;2022-10-16T02:35:46;825.37;;;772.27;;
3000;SDS011;1510;51.072;6.678;2022-10-16T02:38:15;822.50;;;771.00;;
3000;SDS011;1510;51.072;6.678;2022-10-16T02:40:43;817.80;;;767.00;;
3000;SDS011;1510;51.072;6.678;2022-10-16T02:43:10;810.93;;;760.13;;
3000;SDS011;1510;51.072;6.678;2022-10-16T02:45:37;795.60;;;748.10;;
3000;SDS011;1510;51.072;6.678;2022-10-16T02:48:06;763.57;;;719.70;;
3000;SDS011;1510;51.072;6.678;2022-10-16T02:50:32;719.47;;;680.37;;
3000;SDS011;1510;51.072;6.678;2022-10-16T02:52:59;670.17;;;635.37;;
3000;SDS011;1510;51.072;6.678;2022-10-16T02:55:26;651.07;;;618.47;;
3000;SDS011;1510;51.072;6.678;2022-10-16T02:57:53;646.60;;;615.57;;
3000;SDS011;1510;51.072;6.678;2022-10-16T03:00:20;626.83;;;597.03;;
3000;SDS011;1510;51.072;6.678;2022-10-16T03:02:47;610.97;;;582.33;;
3000;SDS011;1510;51.072;6.678;2022-10-16T03:05:15;616.60;;;588.03;;
3000;SDS011;1510;51.072;6.678;2022-10-16T03:07:42;617.20;;;589.03;;
3000;SDS011;1510;51.072;6.678;2022-10-16T03:10:09;613.53;;;585.60;;
3000;SDS011;1510;51.072;6.678;2022-10-16T03:12:35;607.17;;;579.73;;
3000;SDS011;1510;51.072;6.678;2022-10-16T03:15:02;601.83;;;574.83;;
3000;SDS011;1510;51.072;6.678;2022-10-16T03:17:31;611.73;;;584.33;;
3000;SDS011;1510;51.072;6.678;2022-10-16T03:19:58;607.77;;;579.97;;
3000;SDS011;1510;51.072;6.678;2022-10-16T03:22:26;625.40;;;595.73;;
3000;SDS011;1510;51.072;6.678;2022-10-16T03:24:53;662.13;;;628.67;;
3000;SDS011;1510;51.072;6.678;2022-10-16T03:27:19;702.57;;;666.17;;
3000;SDS011;1510;51.072;6.678;2022-10-16T03:29:46;709.03;;;671.17;;
3000;SDS011;1510;51.072;6.678;2022-10-16T03:32:13;709.30;;;670.57;;
3000;SDS011;1510;51.072;6.678;2022-10-16T03:34:40;689.80;;;653.70;;
3000;SDS011;1510;51.072;6.678;2022-10-16T03:37:06;660.20;;;627.20;;
3000;SDS011;1510;51.072;6.678;2022-10-16T03:39:35;636.83;;;605.43;;
3000;SDS011;1510;51.072;6.678;2022-10-16T03:42:01;609.47;;;579.47;;
3000;SDS011;1510;51.072;6.678;2022-10-16T03:44:28;589.87;;;562.70;;
3000;SDS011;1510;51.072;6.678;2022-10-16T03:46:56;550.93;;;527.40;;
3000;SDS011;1510;51.072;6.678;2022-10-16T03:49:22;536.03;;;514.07;;
3000;SDS011;1510;51.072;6.678;2022-10-16T03:51:49;527.17;;;505.73;;
3000;SDS011;1510;51.072;6.678;2022-10-16T03:54:16;535.50;;;513.80;;
3000;SDS011;1510;51.072;6.678;2022-10-16T03:56:44;549.10;;;526.30;;
3000;SDS011;1510;51.072;6.678;2022-10-16T03:59:10;554.67;;;531.47;;
3000;SDS011;1510;51.072;6.678;2022-10-16T04:01:37;560.03;;;536.97;;
3000;SDS011;1510;51.072;6.678;2022-10-16T04:04:04;571.77;;;547.47;;
3000;SDS011;1510;51.072;6.678;2022-10-16T04:06:30;580.70;;;555.80;;
3000;SDS011;1510;51.072;6.678;2022-10-16T04:08:57;582.90;;;557.70;;
3000;SDS011;1510;51.072;6.678;2022-10-16T04:11:24;590.17;;;562.50;;
3000;SDS011;1510;51.072;6.678;2022-10-16T04:13:52;604.67;;;576.97;;
3000;SDS011;1510;51.072;6.678;2022-10-16T04:16:19;622.83;;;593.47;;
3000;SDS011;1510;51.072;6.678;2022-10-16T04:18:45;632.77;;;603.67;;
3000;SDS011;1510;51.072;6.678;2022-10-16T04:21:12;627.63;;;598.07;;
3000;SDS011;1510;51.072;6.678;2022-10-16T04:23:39;631.80;;;601.77;;
3000;SDS011;1510;51.072;6.678;2022-10-16T04:26:05;662.50;;;630.83;;
3000;SDS011;1510;51.072;6.678;2022-10-16T04:28:32;674.03;;;641.23;;
3000;SDS011;1510;51.072;6.678;2022-10-16T04:31:00;663.00;;;631.60;;
3000;SDS011;1510;51.072;6.678;2022-10-16T04:33:29;659.43;;;627.60;;
3000;SDS011;1510;51.072;6.678;2022-10-16T04:35:56;661.50;;;629.07;;
3000;SDS011;1510;51.072;6.678;2022-10-16T04:38:24;689.03;;;655.43;;
3000;SDS011;1510;51.072;6.678;2022-10-16T04:40:51;693.93;;;659.33;;
3000;SDS011;1510;51.072;6.678;2022-10-16T04:43:18;704.37;;;668.27;;
3000;SDS011;1510;51.072;6.678;2022-10-16T04:45:45;682.67;;;648.40;;
3000;SDS011;1510;51.072;6.678;2022-10-16T04:48:13;685.10;;;650.80;;
3000;SDS011;1510;51.072;6.678;2022-10-16T04:50:40;673.90;;;640.00;;
3000;SDS011;1510;51.072;6.678;2022-10-16T04:53:07;681.90;;;647.23;;
3000;SDS011;1510;51.072;6.678;2022-10-16T04:55:34;715.17;;;677.67;;
3000;SDS011;1510;51.072;6.678;2022-10-16T04:58:01;774.53;;;730.37;;
3000;SDS011;1510;51.072;6.678;2022-10-16T05:00:37;796.23;;;747.43;;
3000;SDS011;1510;51.072;6.678;2022-10-16T05:03:09;807.57;;;758.07;;
3000;SDS011;1510;51.072;6.678;2022-10-16T05:09:02;835.80;;;781.17;;
3000;SDS011;1510;51.072;6.678;2022-10-16T05:12:07;833.70;;;775.23;;
3000;SDS011;1510;51.072;6.678;2022-10-16T05:30:40;829.43;;;757.57;;
3000;SDS011;1510;51.072;6.678;2022-10-16T05:36:36;803.50;;;729.77;;
3000;SDS011;1510;51.072;6.678;2022-10-16T05:39:07;797.90;;;722.80;;
3000;SDS011;1510;51.072;6.678;2022-10-16T05:41:33;791.77;;;717.00;;
3000;SDS011;1510;51.072;6.678;2022-10-16T05:44:03;791.93;;;715.00;;
3000;SDS011;1510;51.072;6.678;2022-10-16T05:46:30;797.67;;;721.70;;
3000;SDS011;1510;51.072;6.678;2022-10-16T05:48:57;782.07;;;705.23;;
3000;SDS011;1510;51.072;6.678;2022-10-16T05:51:23;777.43;;;700.33;;
3000;SDS011;1510;51.072;6.678;2022-10-16T05:53:51;785.03;;;707.50;;
3000;SDS011;1510;51.072;6.678;2022-10-16T05:56:20;781.40;;;702.90;;
3000;SDS011;1510;51.072;6.678;2022-10-16T05:58:55;752.87;;;675.10;;
3000;SDS011;1510;51.072;6.678;2022-10-16T06:01:40;753.60;;;674.43;;
3000;SDS011;1510;51.072;6.678;2022-10-16T06:04:07;749.90;;;671.13;;
3000;SDS011;1510;51.072;6.678;2022-10-16T06:09:03;779.47;;;703.30;;
3000;SDS011;1510;51.072;6.678;2022-10-16T06:11:32;788.57;;;713.80;;
3000;SDS011;1510;51.072;6.678;2022-10-16T06:14:00;795.00;;;721.37;;
3000;SDS011;1510;51.072;6.678;2022-10-16T06:16:31;803.90;;;731.77;;
3000;SDS011;1510;51.072;6.678;2022-10-16T06:18:59;817.37;;;745.27;;
3000;SDS011;1510;51.072;6.678;2022-10-16T06:21:31;814.53;;;742.43;;
3000;SDS011;1510;51.072;6.678;2022-10-16T06:23:58;810.03;;;738.63;;
3000;SDS011;1510;51.072;6.678;2022-10-16T06:26:25;817.67;;;747.10;;
3000;SDS011;1510;51.072;6.678;2022-10-16T06:28:55;812.83;;;742.17;;
3000;SDS011;1510;51.072;6.678;2022-10-16T06:31:22;814.33;;;743.77;;
3000;SDS011;1510;51.072;6.678;2022-10-16T06:33:52;813.97;;;743.80;;
3000;SDS011;1510;51.072;6.678;2022-10-16T06:36:21;816.07;;;744.83;;
3000;SDS011;1510;51.072;6.678;2022-10-16T06:38:48;809.43;;;738.93;;
3000;SDS011;1510;51.072;6.678;2022-10-16T06:41:16;807.63;;;737.80;;
3000;SDS011;1510;51.072;6.678;2022-10-16T06:43:44;812.60;;;743.63;;
3000;SDS011;1510;51.072;6.678;2022-10-16T06:46:13;821.30;;;751.50;;
3000;SDS011;1510;51.072;6.678;2022-10-16T06:48:41;811.47;;;742.70;;
3000;SDS011;1510;51.072;6.678;2022-10-16T06:51:09;817.60;;;751.20;;
3000;SDS011;1510;51.072;6.678;2022-10-16T06:53:38;837.13;;;771.53;;
3000;SDS011;1510;51.072;6.678;2022-10-16T06:56:06;833.13;;;770.00;;
3000;SDS011;1510;51.072;6.678;2022-10-16T06:58:33;830.73;;;770.30;;
3000;SDS011;1510;51.072;6.678;2022-10-16T07:01:00;818.47;;;760.40;;
3000;SDS011;1510;51.072;6.678;2022-10-16T07:03:28;803.10;;;750.10;;
3000;SDS011;1510;51.072;6.678;2022-10-16T07:05:55;796.97;;;745.67;;
3000;SDS011;1510;51.072;6.678;2022-10-16T07:08:22;787.43;;;739.43;;
3000;SDS011;1510;51.072;6.678;2022-10-16T07:10:49;760.60;;;715.53;;
3000;SDS011;1510;51.072;6.678;2022-10-16T07:13:24;739.10;;;697.07;;
3000;SDS011;1510;51.072;6.678;2022-10-16T07:15:51;716.40;;;677.43;;
3000;SDS011;1510;51.072;6.678;2022-10-16T07:18:18;700.63;;;663.40;;
3000;SDS011;1510;51.072;6.678;2022-10-16T07:20:46;704.60;;;667.20;;
3000;SDS011;1510;51.072;6.678;2022-10-16T07:23:13;698.77;;;661.17;;
3000;SDS011;1510;51.072;6.678;2022-10-16T07:25:40;682.00;;;645.73;;
3000;SDS011;1510;51.072;6.678;2022-10-16T07:28:06;697.20;;;659.37;;
3000;SDS011;1510;51.072;6.678;2022-10-16T07:30:34;686.63;;;649.93;;
3000;SDS011;1510;51.072;6.678;2022-10-16T07:33:03;676.83;;;641.03;;
3000;SDS011;1510;51.072;6.678;2022-10-16T07:35:29;667.37;;;632.40;;
3000;SDS011;1510;51.072;6.678;2022-10-16T07:37:57;636.33;;;604.07;;
3000;SDS011;1510;51.072;6.678;2022-10-16T07:40:24;600.63;;;571.13;;
3000;SDS011;1510;51.072;6.678;2022-10-16T07:42:52;559.80;;;533.90;;
3000;SDS011;1510;51.072;6.678;2022-10-16T07:45:18;560.57;;;534.77;;
3000;SDS011;1510;51.072;6.678;2022-10-16T07:47:45;545.07;;;520.17;;
3000;SDS011;1510;51.072;6.678;2022-10-16T07:50:12;563.50;;;536.50;;
3000;SDS011;1510;51.072;6.678;2022-10-16T07:52:39;574.30;;;547.13;;
3000;SDS011;1510;51.072;6.678;2022-10-16T07:55:07;592.47;;;563.80;;
3000;SDS011;1510;51.072;6.678;2022-10-16T07:57:34;604.97;;;575.43;;
3000;SDS011;1510;51.072;6.678;2022-10-16T08:00:01;559.13;;;533.07;;
3000;SDS011;1510;51.072;6.678;2022-10-16T08:02:28;548.70;;;522.53;;
3000;SDS011;1510;51.072;6.678;2022-10-16T08:04:55;443.80;;;425.57;;
3000;SDS011;1510;51.072;6.678;2022-10-16T08:07:21;359.63;;;346.03;;
3000;SDS011;1510;51.072;6.678;2022-10-16T08:09:49;346.33;;;333.57;;
3000;SDS011;1510;51.072;6.678;2022-10-16T08:12:18;345.00;;;332.47;;
3000;SDS011;1510;51.072;6.678;2022-10-16T08:14:44;292.13;;;281.80;;
3000;SDS011;1510;51.072;6.678;2022-10-16T08:17:13;230.20;;;222.40;;
3000;SDS011;1510;51.072;6.678;2022-10-16T08:19:40;225.37;;;218.07;;
3000;SDS011;1510;51.072;6.678;2022-10-16T08:22:10;219.30;;;212.20;;
3000;SDS011;1510;51.072;6.678;2022-10-16T08:24:37;174.43;;;168.43;;
3000;SDS011;1510;51.072;6.678;2022-10-16T08:27:04;134.87;;;130.13;;
3000;SDS011;1510;51.072;6.678;2022-10-16T08:29:33;131.10;;;126.77;;
3000;SDS011;1510;51.072;6.678;2022-10-16T08:31:59;104.23;;;100.53;;
3000;SDS011;1510;51.072;6.678;2022-10-16T08:34:26;118.87;;;114.77;;
3000;SDS011;1510;51.072;6.678;2022-10-16T08:36:53;79.90;;;77.00;;
3000;SDS011;1510;51.072;6.678;2022-10-16T08:39:20;45.93;;;44.23;;
3000;SDS011;1510;51.072;6.678;2022-10-16T08:41:53;39.40;;;37.53;;
3000;SDS011;1510;51.072;6.678;2022-10-16T08:44:50;13.43;;;12.07;;
3000;SDS011;1510;51.072;6.678;2022-10-16T08:47:48;7.70;;;7.10;;
3000;SDS011;1510;51.072;6.678;2022-10-16T08:50:21;6.30;;;4.20;;
3000;SDS011;1510;51.072;6.678;2022-10-16T08:52:52;4.73;;;3.47;;
3000;SDS011;1510;51.072;6.678;2022-10-16T08:55:28;5.13;;;3.70;;
3000;SDS011;1510;51.072;6.678;2022-10-16T08:57:58;5.60;;;2.37;;
3000;SDS011;1510;51.072;6.678;2022-10-16T09:00:26;5.80;;;2.60;;
3000;SDS011;1510;51.072;6.678;2022-10-16T09:02:57;4.37;;;1.70;;
3000;SDS011;1510;51.072;6.678;2022-10-16T09:05:36;6.13;;;1.50;;
3000;SDS011;1510;51.072;6.678;2022-10-16T09:08:28;6.40;;;1.97;;
3000;SDS011;1510;51.072;6.678;2022-10-16T09:11:03;10.40;;;2.83;;
3000;SDS011;1510;51.072;6.678;2022-10-16T09:13:41;4.33;;;1.70;;
3000;SDS011;1510;51.072;6.678;2022-10-16T09:16:17;6.33;;;1.60;;
3000;SDS011;1510;51.072;6.678;2022-10-16T09:18:51;5.67;;;1.97;;
3000;SDS011;1510;51.072;6.678;2022-10-16T09:21:26;8.10;;;3.60;;
3000;SDS011;1510;51.072;6.678;2022-10-16T09:23:56;10.37;;;1.80;;
3000;SDS011;1510;51.072;6.678;2022-10-16T09:26:25;4.43;;;1.17;;
3000;SDS011;1510;51.072;6.678;2022-10-16T09:28:52;4.40;;;1.13;;
3000;SDS011;1510;51.072;6.678;2022-10-16T09:31:22;9.10;;;1.50;;
3000;SDS011;1510;51.072;6.678;2022-10-16T09:33:50;4.93;;;1.47;;
3000;SDS011;1510;51.072;6.678;2022-10-16T09:36:19;4.37;;;1.10;;
3000;SDS011;1510;51.072;6.678;2022-10-16T09:38:47;6.43;;;1.43;;
3000;SDS011;1510;51.072;6.678;2022-10-16T09:41:16;6.03;;;2.00;;
3000;SDS011;1510;51.072;6.678;2022-10-16T09:43:47;7.07;;;4.13;;
3000;SDS011;1510;51.072;6.678;2022-10-16T09:46:25;4.77;;;1.73;;
3000;SDS011;1510;51.072;6.678;2022-10-16T09:48:54;5.80;;;1.10;;
3000;SDS011;1510;51.072;6.678;2022-10-16T09:51:24;4.17;;;1.37;;
3000;SDS011;1510;51.072;6.678;2022-10-16T09:53:56;6.23;;;1.33;;
3000;SDS011;1510;51.072;6.678;2022-10-16T09:56:25;5.37;;;1.10;;
3000;SDS011;1510;51.072;6.678;2022-10-16T09:58:54;3.70;;;0.80;;
3000;SDS011;1510;51.072;6.678;2022-10-16T10:01:22;7.37;;;1.30;;
3000;SDS011;1510;51.072;6.678;2022-10-16T10:03:56;5.90;;;1.10;;
3000;SDS011;1510;51.072;6.678;2022-10-16T10:06:26;4.23;;;0.97;;
3000;SDS011;1510;51.072;6.678;2022-10-16T10:08:56;8.40;;;1.00;;
3000;SDS011;1510;51.072;6.678;2022-10-16T10:11:37;4.40;;;0.80;;
3000;SDS011;1510;51.072;6.678;2022-10-16T10:14:06;5.43;;;0.93;;
3000;SDS011;1510;51.072;6.678;2022-10-16T10:16:46;5.77;;;1.70;;
3000;SDS011;1510;51.072;6.678;2022-10-16T10:19:14;7.90;;;1.07;;
3000;SDS011;1510;51.072;6.678;2022-10-16T10:21:41;3.77;;;1.00;;
3000;SDS011;1510;51.072;6.678;2022-10-16T10:24:13;7.10;;;0.93;;
3000;SDS011;1510;51.072;6.678;2022-10-16T10:26:42;6.23;;;1.00;;
3000;SDS011;1510;51.072;6.678;2022-10-16T10:29:17;4.60;;;1.20;;
3000;SDS011;1510;51.072;6.678;2022-10-16T10:31:57;4.93;;;1.03;;
3000;SDS011;1510;51.072;6.678;2022-10-16T10:34:36;5.33;;;1.20;;
3000;SDS011;1510;51.072;6.678;2022-10-16T10:37:11;4.30;;;0.90;;
3000;SDS011;1510;51.072;6.678;2022-10-16T10:39:48;3.60;;;0.77;;
3000;SDS011;1510;51.072;6.678;2022-10-16T10:42:22;4.20;;;0.93;;
3000;SDS011;1510;51.072;6.678;2022-10-16T10:45:00;4.60;;;1.00;;
3000;SDS011;1510;51.072;6.678;2022-10-16T10:47:45;4.70;;;0.90;;
3000;SDS011;1510;51.072;6.678;2022-10-16T10:50:20;6.73;;;1.10;;
3000;SDS011;1510;51.072;6.678;2022-10-16T10:52:53;4.50;;;1.20;;
3000;SDS011;1510;51.072;6.678;2022-10-16T10:55:28;4.00;;;0.90;;
3000;SDS011;1510;51.072;6.678;2022-10-16T10:58:18;4.13;;;1.10;;
3000;SDS011;1510;51.072;6.678;2022-10-16T11:01:08;4.77;;;1.00;;
3000;SDS011;1510;51.072;6.678;2022-10-16T11:03:46;3.80;;;0.90;;
3000;SDS011;1510;51.072;6.678;2022-10-16T11:06:29;10.13;;;0.90;;
3000;SDS011;1510;51.072;6.678;2022-10-16T11:09:00;5.27;;;2.00;;
3000;SDS011;1510;51.072;6.678;2022-10-16T11:11:34;3.93;;;0.87;;
3000;SDS011;1510;51.072;6.678;2022-10-16T11:14:04;4.17;;;1.03;;
3000;SDS011;1510;51.072;6.678;2022-10-16T11:16:42;5.60;;;1.00;;
3000;SDS011;1510;51.072;6.678;2022-10-16T11:19:14;4.10;;;1.20;;
3000;SDS011;1510;51.072;6.678;2022-10-16T11:21:54;3.80;;;0.77;;
3000;SDS011;1510;51.072;6.678;2022-10-16T11:24:33;6.60;;;0.80;;
3000;SDS011;1510;51.072;6.678;2022-10-16T11:27:08;5.77;;;1.00;;
3000;SDS011;1510;51.072;6.678;2022-10-16T11:29:43;4.60;;;0.80;;
3000;SDS011;1510;51.072;6.678;2022-10-16T11:32:19;7.33;;;1.03;;
3000;SDS011;1510;51.072;6.678;2022-10-16T11:34:51;4.17;;;0.83;;
3000;SDS011;1510;51.072;6.678;2022-10-16T11:37:23;6.87;;;0.90;;
3000;SDS011;1510;51.072;6.678;2022-10-16T11:39:56;4.23;;;0.80;;
3000;SDS011;1510;51.072;6.678;2022-10-16T11:42:30;4.90;;;1.17;;
3000;SDS011;1510;51.072;6.678;2022-10-16T11:45:07;10.33;;;1.30;;
3000;SDS011;1510;51.072;6.678;2022-10-16T11:47:51;4.27;;;1.07;;
3000;SDS011;1510;51.072;6.678;2022-10-16T11:50:25;7.00;;;1.20;;
3000;SDS011;1510;51.072;6.678;2022-10-16T11:52:56;4.00;;;1.07;;
3000;SDS011;1510;51.072;6.678;2022-10-16T11:55:30;4.37;;;0.80;;
3000;SDS011;1510;51.072;6.678;2022-10-16T11:58:01;7.20;;;1.10;;
3000;SDS011;1510;51.072;6.678;2022-10-16T12:00:34;5.97;;;1.00;;
3000;SDS011;1510;51.072;6.678;2022-10-16T12:03:09;3.70;;;0.73;;
3000;SDS011;1510;51.072;6.678;2022-10-16T12:08:39;3.70;;;0.70;;
3000;SDS011;1510;51.072;6.678;2022-10-16T12:11:07;5.57;;;1.17;;
3000;SDS011;1510;51.072;6.678;2022-10-16T12:13:36;5.37;;;1.13;;
3000;SDS011;1510;51.072;6.678;2022-10-16T12:16:19;4.83;;;1.00;;
3000;SDS011;1510;51.072;6.678;2022-10-16T12:18:48;5.90;;;0.90;;
3000;SDS011;1510;51.072;6.678;2022-10-16T12:21:16;6.33;;;0.93;;
3000;SDS011;1510;51.072;6.678;2022-10-16T12:23:48;6.90;;;1.03;;
3000;SDS011;1510;51.072;6.678;2022-10-16T12:26:23;13.60;;;2.80;;
3000;SDS011;1510;51.072;6.678;2022-10-16T12:28:51;5.27;;;1.20;;
3000;SDS011;1510;51.072;6.678;2022-10-16T12:31:18;4.17;;;1.10;;
3000;SDS011;1510;51.072;6.678;2022-10-16T12:33:53;5.60;;;1.10;;
3000;SDS011;1510;51.072;6.678;2022-10-16T12:36:28;4.00;;;0.90;;
3000;SDS011;1510;51.072;6.678;2022-10-16T12:38:57;6.17;;;1.37;;
3000;SDS011;1510;51.072;6.678;2022-10-16T12:41:25;4.27;;;1.00;;
3000;SDS011;1510;51.072;6.678;2022-10-16T12:43:54;4.67;;;1.10;;
3000;SDS011;1510;51.072;6.678;2022-10-16T12:46:23;5.07;;;0.90;;
3000;SDS011;1510;51.072;6.678;2022-10-16T12:49:21;5.00;;;1.00;;
3000;SDS011;1510;51.072;6.678;2022-10-16T12:51:57;4.20;;;0.93;;
3000;SDS011;1510;51.072;6.678;2022-10-16T12:54:25;3.90;;;0.80;;
3000;SDS011;1510;51.072;6.678;2022-10-16T12:57:02;4.90;;;1.23;;
3000;SDS011;1510;51.072;6.678;2022-10-16T12:59:51;7.90;;;0.97;;
3000;SDS011;1510;51.072;6.678;2022-10-16T13:02:39;4.43;;;0.97;;
3000;SDS011;1510;51.072;6.678;2022-10-16T13:05:38;6.43;;;0.90;;
3000;SDS011;1510;51.072;6.678;2022-10-16T13:08:35;5.20;;;1.10;;
3000;SDS011;1510;51.072;6.678;2022-10-16T13:11:14;5.40;;;1.13;;
3000;SDS011;1510;51.072;6.678;2022-10-16T13:13:51;5.70;;;1.30;;
3000;SDS011;1510;51.072;6.678;2022-10-16T13:16:38;4.63;;;1.27;;
3000;SDS011;1510;51.072;6.678;2022-10-16T13:19:17;4.73;;;1.17;;
3000;SDS011;1510;51.072;6.678;2022-10-16T13:21:51;4.77;;;1.23;;
3000;SDS011;1510;51.072;6.678;2022-10-16T13:24:32;5.07;;;1.10;;
3000;SDS011;1510;51.072;6.678;2022-10-16T13:27:10;4.67;;;1.00;;
3000;SDS011;1510;51.072;6.678;2022-10-16T13:29:44;6.03;;;1.33;;
3000;SDS011;1510;51.072;6.678;2022-10-16T13:32:18;4.43;;;1.10;;
3000;SDS011;1510;51.072;6.678;2022-10-16T13:34:46;4.97;;;1.00;;
3000;SDS011;1510;51.072;6.678;2022-10-16T13:37:18;4.90;;;1.10;;
3000;SDS011;1510;51.072;6.678;2022-10-16T13:39:47;6.77;;;1.30;;
3000;SDS011;1510;51.072;6.678;2022-10-16T13:42:17;6.77;;;1.50;;
3000;SDS011;1510;51.072;6.678;2022-10-16T13:44:50;3.80;;;0.83;;
3000;SDS011;1510;51.072;6.678;2022-10-16T13:47:18;4.20;;;1.10;;
3000;SDS011;1510;51.072;6.678;2022-10-16T13:49:47;5.50;;;1.10;;
3000;SDS011;1510;51.072;6.678;2022-10-16T13:52:25;4.90;;;0.80;;
3000;SDS011;1510;51.072;6.678;2022-10-16T13:54:53;5.00;;;1.00;;
3000;SDS011;1510;51.072;6.678;2022-10-16T13:57:21;5.60;;;1.10;;
3000;SDS011;1510;51.072;6.678;2022-10-16T13:59:49;7.17;;;1.13;;
3000;SDS011;1510;51.072;6.678;2022-10-16T14:02:18;4.73;;;1.17;;
3000;SDS011;1510;51.072;6.678;2022-10-16T14:04:47;4.10;;;1.07;;
3000;SDS011;1510;51.072;6.678;2022-10-16T14:07:17;6.30;;;0.87;;
3000;SDS011;1510;51.072;6.678;2022-10-16T14:09:48;3.90;;;1.00;;
3000;SDS011;1510;51.072;6.678;2022-10-16T14:12:17;4.93;;;1.03;;
3000;SDS011;1510;51.072;6.678;2022-10-16T14:14:44;3.80;;;0.80;;
3000;SDS011;1510;51.072;6.678;2022-10-16T14:17:13;4.47;;;0.90;;
3000;SDS011;1510;51.072;6.678;2022-10-16T14:19:40;6.13;;;0.93;;
3000;SDS011;1510;51.072;6.678;2022-10-16T14:22:21;4.13;;;1.00;;
3000;SDS011;1510;51.072;6.678;2022-10-16T14:25:00;4.80;;;0.97;;
3000;SDS011;1510;51.072;6.678;2022-10-16T14:27:32;5.70;;;1.10;;
3000;SDS011;1510;51.072;6.678;2022-10-16T14:30:13;5.00;;;1.40;;
3000;SDS011;1510;51.072;6.678;2022-10-16T14:32:51;8.07;;;0.93;;
3000;SDS011;1510;51.072;6.678;2022-10-16T14:35:23;5.03;;;1.37;;
3000;SDS011;1510;51.072;6.678;2022-10-16T14:37:58;4.30;;;1.00;;
3000;SDS011;1510;51.072;6.678;2022-10-16T14:40:29;4.10;;;0.80;;
3000;SDS011;1510;51.072;6.678;2022-10-16T14:42:58;5.30;;;1.10;;
3000;SDS011;1510;51.072;6.678;2022-10-16T14:45:27;6.97;;;1.10;;
3000;SDS011;1510;51.072;6.678;2022-10-16T14:47:57;3.90;;;1.07;;
3000;SDS011;1510;51.072;6.678;2022-10-16T14:50:26;5.10;;;1.10;;
3000;SDS011;1510;51.072;6.678;2022-10-16T14:52:53;4.97;;;0.97;;
3000;SDS011;1510;51.072;6.678;2022-10-16T14:55:20;6.83;;;1.27;;
3000;SDS011;1510;51.072;6.678;2022-10-16T14:57:47;5.20;;;1.30;;
3000;SDS011;1510;51.072;6.678;2022-10-16T15:00:22;4.70;;;1.63;;
3000;SDS011;1510;51.072;6.678;2022-10-16T15:02:50;6.57;;;1.70;;
3000;SDS011;1510;51.072;6.678;2022-10-16T15:05:18;6.10;;;2.07;;
3000;SDS011;1510;51.072;6.678;2022-10-16T15:07:47;8.30;;;1.80;;
3000;SDS011;1510;51.072;6.678;2022-10-16T15:10:17;5.90;;;1.20;;
3000;SDS011;1510;51.072;6.678;2022-10-16T15:12:44;6.93;;;1.37;;
3000;SDS011;1510;51.072;6.678;2022-10-16T15:15:23;9.63;;;2.07;;
3000;SDS011;1510;51.072;6.678;2022-10-16T15:17:58;7.97;;;2.30;;
3000;SDS011;1510;51.072;6.678;2022-10-16T15:20:26;5.57;;;1.90;;
3000;SDS011;1510;51.072;6.678;2022-10-16T15:22:55;7.87;;;2.17;;
3000;SDS011;1510;51.072;6.678;2022-10-16T15:25:30;5.03;;;1.87;;
3000;SDS011;1510;51.072;6.678;2022-10-16T15:27:58;5.17;;;1.37;;
3000;SDS011;1510;51.072;6.678;2022-10-16T15:30:27;5.03;;;1.30;;
3000;SDS011;1510;51.072;6.678;2022-10-16T15:32:54;11.20;;;1.70;;
3000;SDS011;1510;51.072;6.678;2022-10-16T15:35:21;5.97;;;1.27;;